createdAt,value
2022-09-27T00:01:09.651Z,85.06
2022-09-27T00:03:40.527Z,84.80
2022-09-27T00:06:11.915Z,85.57
2022-09-27T00:08:40.125Z,86.06
2022-09-27T00:11:13.851Z,85.74
2022-09-27T00:13:43.262Z,85.70
2022-09-27T00:16:11.607Z,86.69
2022-09-27T00:18:39.810Z,86.12
2022-09-27T00:21:09.539Z,85.60
2022-09-27T00:23:38.263Z,86.03
2022-09-27T00:26:07.624Z,86.21
2022-09-27T00:28:35.846Z,85.80
2022-09-27T00:31:04.106Z,86.44
2022-09-27T00:33:32.294Z,86.71
2022-09-27T00:36:04.420Z,86.40
2022-09-27T00:38:33.138Z,86.15
2022-09-27T00:41:01.409Z,86.17
2022-09-27T00:43:46.981Z,86.59
2022-09-27T00:46:19.387Z,86.75
2022-09-27T00:48:49.010Z,85.34
2022-09-27T00:51:17.170Z,85.71
2022-09-27T00:53:51.686Z,85.93
2022-09-27T00:56:22.358Z,86.26
2022-09-27T00:58:57.842Z,86.12
2022-09-27T01:01:26.049Z,86.09
2022-09-27T01:04:00.791Z,85.88
2022-09-27T01:06:29.126Z,85.89
2022-09-27T01:08:57.349Z,86.06
2022-09-27T01:11:44.341Z,85.75
2022-09-27T01:14:12.746Z,85.19
2022-09-27T01:16:40.831Z,85.16
2022-09-27T01:19:27.675Z,85.23
2022-09-27T01:22:04.927Z,85.49
2022-09-27T01:24:53.433Z,85.63
2022-09-27T01:27:31.212Z,85.56
2022-09-27T01:30:18.163Z,86.01
2022-09-27T01:32:58.314Z,85.92
2022-09-27T01:35:35.798Z,85.61
2022-09-27T01:38:17.908Z,86.47
2022-09-27T01:41:00.268Z,86.81
2022-09-27T01:44:03.840Z,87.29
2022-09-27T01:46:39.607Z,87.36
2022-09-27T01:49:21.017Z,86.34
2022-09-27T01:51:53.268Z,86.39
2022-09-27T01:54:25.587Z,87.30
2022-09-27T01:57:14.819Z,86.93
2022-09-27T02:00:07.192Z,86.93
2022-09-27T02:02:48.268Z,86.73
2022-09-27T02:05:40.739Z,86.90
2022-09-27T02:08:39.407Z,86.95
2022-09-27T02:11:14.314Z,86.61
2022-09-27T02:13:45.624Z,86.73
2022-09-27T02:16:39.491Z,86.75
2022-09-27T02:19:16.694Z,86.73
2022-09-27T02:21:57.365Z,86.83
2022-09-27T02:24:30.594Z,86.95
2022-09-27T02:27:06.926Z,86.68
2022-09-27T02:29:37.782Z,87.42
2022-09-27T02:32:06.274Z,87.45
2022-09-27T02:34:36.520Z,87.77
2022-09-27T02:37:04.673Z,87.44
2022-09-27T02:39:32.932Z,86.65
2022-09-27T02:42:05.805Z,87.05
2022-09-27T02:44:34.410Z,88.07
2022-09-27T02:47:08.387Z,88.33
2022-09-27T02:49:37.455Z,88.13
2022-09-27T02:52:53.970Z,87.95
2022-09-27T02:55:25.740Z,88.82
2022-09-27T02:58:21.437Z,88.90
2022-09-27T03:01:28.162Z,87.79
2022-09-27T03:04:09.317Z,88.12
2022-09-27T03:06:40.515Z,88.70
2022-09-27T03:09:34.818Z,88.56
2022-09-27T03:12:03.052Z,88.34
2022-09-27T03:14:31.214Z,87.67
2022-09-27T03:17:08.742Z,87.67
2022-09-27T03:20:14.868Z,88.30
2022-09-27T03:22:54.819Z,87.97
2022-09-27T03:25:22.980Z,87.94
2022-09-27T03:27:51.346Z,87.94
2022-09-27T03:30:19.754Z,87.71
2022-09-27T03:32:47.948Z,87.64
2022-09-27T03:35:37.041Z,87.77
2022-09-27T03:38:05.574Z,87.42
2022-09-27T03:40:34.099Z,87.51
2022-09-27T03:43:02.791Z,88.00
2022-09-27T03:45:31.507Z,87.95
2022-09-27T03:48:01.582Z,87.40
2022-09-27T03:50:30.265Z,87.47
2022-09-27T03:52:58.433Z,87.71
2022-09-27T03:55:26.720Z,87.91
2022-09-27T03:57:54.859Z,87.83
2022-09-27T04:00:27.794Z,88.03
2022-09-27T04:02:56.865Z,88.15
2022-09-27T04:05:25.835Z,88.22
2022-09-27T04:07:59.208Z,87.88
2022-09-27T04:10:27.372Z,87.51
2022-09-27T04:12:55.907Z,88.08
2022-09-27T04:15:25.036Z,88.61
2022-09-27T04:17:53.178Z,88.85
2022-09-27T04:20:36.616Z,88.98
2022-09-27T04:23:08.142Z,88.58
2022-09-27T04:25:40.024Z,88.32
2022-09-27T04:28:19.686Z,88.90
2022-09-27T04:30:48.833Z,88.79
2022-09-27T04:33:39.801Z,89.00
2022-09-27T04:36:29.641Z,88.11
2022-09-27T04:39:20.851Z,88.40
2022-09-27T04:41:49.262Z,88.94
2022-09-27T04:44:17.437Z,89.44
2022-09-27T04:46:48.590Z,89.46
2022-09-27T04:49:17.916Z,89.16
2022-09-27T04:51:46.847Z,89.79
2022-09-27T04:54:15.058Z,89.40
2022-09-27T04:56:52.559Z,89.96
2022-09-27T04:59:21.809Z,90.10
2022-09-27T05:01:50.776Z,89.87
2022-09-27T05:04:18.922Z,89.07
2022-09-27T05:06:56.871Z,88.81
2022-09-27T05:09:32.228Z,89.63
2022-09-27T05:12:01.395Z,89.44
2022-09-27T05:14:47.635Z,89.36
2022-09-27T05:17:34.418Z,88.21
2022-09-27T05:20:21.365Z,89.11
2022-09-27T05:22:56.018Z,88.51
2022-09-27T05:25:25.931Z,88.21
2022-09-27T05:27:54.170Z,88.64
2022-09-27T05:30:22.698Z,88.22
2022-09-27T05:32:54.841Z,87.80
2022-09-27T05:35:26.329Z,88.15
2022-09-27T05:37:55.574Z,87.95
2022-09-27T05:40:40.447Z,88.07
2022-09-27T05:43:10.402Z,87.95
2022-09-27T05:45:38.849Z,88.11
2022-09-27T05:48:09.240Z,88.40
2022-09-27T05:50:45.486Z,89.10
2022-09-27T05:53:13.961Z,89.14
2022-09-27T05:55:43.330Z,89.20
2022-09-27T05:58:16.471Z,88.58
2022-09-27T06:00:47.934Z,88.06
2022-09-27T06:03:41.320Z,88.43
2022-09-27T06:06:38.719Z,88.42
2022-09-27T06:09:11.043Z,88.26
2022-09-27T06:11:43.041Z,88.24
2022-09-27T06:14:15.088Z,88.48
2022-09-27T06:17:12.992Z,88.86
2022-09-27T06:19:45.267Z,88.87
2022-09-27T06:22:14.058Z,89.16
2022-09-27T06:24:50.029Z,88.49
2022-09-27T06:27:22.969Z,88.33
2022-09-27T06:30:15.844Z,87.68
2022-09-27T06:32:55.488Z,87.33
2022-09-27T06:35:31.457Z,87.51
2022-09-27T06:38:02.837Z,87.53
2022-09-27T06:40:31.298Z,87.52
2022-09-27T06:43:20.068Z,87.06
2022-09-27T06:46:08.835Z,87.22
2022-09-27T06:49:15.413Z,87.26
2022-09-27T06:52:01.700Z,87.96
2022-09-27T06:54:30.726Z,88.08
2022-09-27T06:57:02.693Z,87.78
2022-09-27T06:59:50.021Z,87.93
2022-09-27T07:02:38.645Z,87.43
2022-09-27T07:05:36.727Z,87.34
2022-09-27T07:08:28.997Z,87.88
2022-09-27T07:11:02.975Z,87.79
2022-09-27T07:13:33.196Z,87.65
2022-09-27T07:16:01.846Z,87.56
2022-09-27T07:18:30.916Z,87.35
2022-09-27T07:21:00.622Z,86.75
2022-09-27T07:23:29.695Z,85.87
2022-09-27T07:26:04.520Z,86.08
2022-09-27T07:28:33.406Z,86.08
2022-09-27T07:31:04.087Z,85.39
2022-09-27T07:33:33.235Z,84.64
2022-09-27T07:36:10.671Z,84.24
2022-09-27T07:38:43.025Z,83.95
2022-09-27T07:41:15.166Z,83.71
2022-09-27T07:43:45.569Z,84.20
2022-09-27T07:46:14.990Z,84.13
2022-09-27T07:49:08.489Z,84.25
2022-09-27T07:51:52.845Z,83.94
2022-09-27T07:54:40.124Z,80.86
2022-09-27T07:57:16.670Z,80.97
2022-09-27T07:59:50.074Z,80.08
2022-09-27T08:02:21.203Z,79.67
2022-09-27T08:04:51.685Z,80.04
2022-09-27T08:07:21.204Z,79.51
2022-09-27T08:09:53.668Z,79.37
2022-09-27T08:12:23.275Z,78.88
2022-09-27T08:14:52.462Z,78.42
2022-09-27T08:17:21.047Z,78.33
2022-09-27T08:20:07.151Z,78.62
2022-09-27T08:22:54.056Z,78.70
2022-09-27T08:25:30.722Z,77.48
2022-09-27T08:28:09.373Z,75.90
2022-09-27T08:30:49.341Z,77.15
2022-09-27T08:33:18.157Z,77.44
2022-09-27T08:35:46.656Z,77.28
2022-09-27T08:38:14.967Z,76.48
2022-09-27T08:41:02.231Z,76.01
2022-09-27T08:43:37.729Z,75.60
2022-09-27T08:46:16.025Z,75.02
2022-09-27T08:48:45.079Z,75.39
2022-09-27T08:51:14.696Z,74.77
2022-09-27T08:53:50.093Z,74.41
2022-09-27T08:56:22.888Z,73.52
2022-09-27T08:58:56.481Z,72.76
2022-09-27T09:01:30.580Z,70.40
2022-09-27T09:04:04.582Z,71.11
2022-09-27T09:06:49.983Z,70.10
2022-09-27T09:09:24.278Z,69.21
2022-09-27T09:12:32.982Z,67.44
2022-09-27T09:15:14.185Z,66.80
2022-09-27T09:17:51.953Z,61.59
2022-09-27T09:20:50.232Z,61.20
2022-09-27T09:23:21.714Z,60.73
2022-09-27T09:26:08.944Z,62.53
2022-09-27T09:28:37.127Z,62.78
2022-09-27T09:31:13.807Z,62.93
2022-09-27T09:33:46.999Z,60.97
2022-09-27T09:36:30.199Z,59.16
2022-09-27T09:39:12.959Z,59.79
2022-09-27T09:42:00.377Z,59.67
2022-09-27T09:44:40.021Z,57.91
2022-09-27T09:47:15.820Z,57.19
2022-09-27T09:49:47.078Z,56.78
2022-09-27T09:52:21.319Z,58.38
2022-09-27T09:55:19.402Z,57.26
2022-09-27T09:57:57.403Z,56.53
2022-09-27T10:00:28.336Z,54.42
2022-09-27T10:02:59.196Z,55.29
2022-09-27T10:05:28.702Z,54.44
2022-09-27T10:08:05.012Z,54.72
2022-09-27T10:10:34.316Z,54.12
2022-09-27T10:13:36.188Z,54.14
2022-09-27T10:16:08.744Z,54.09
2022-09-27T10:18:39.176Z,54.71
2022-09-27T10:21:28.561Z,55.26
2022-09-27T10:24:06.855Z,54.27
2022-09-27T10:27:06.213Z,55.14
2022-09-27T10:29:39.101Z,54.84
2022-09-27T10:32:37.562Z,54.47
2022-09-27T10:35:33.895Z,53.15
2022-09-27T10:38:21.996Z,53.08
2022-09-27T10:40:52.222Z,54.66
2022-09-27T10:43:29.590Z,55.68
2022-09-27T10:46:11.465Z,55.60
2022-09-27T10:48:42.547Z,55.90
2022-09-27T10:51:20.543Z,56.02
2022-09-27T10:53:52.292Z,55.55
2022-09-27T10:56:35.506Z,55.87
2022-09-27T10:59:05.377Z,55.23
2022-09-27T11:01:42.762Z,56.27
2022-09-27T11:04:31.962Z,55.90
2022-09-27T11:07:08.039Z,55.57
2022-09-27T11:09:45.882Z,55.83
2022-09-27T11:12:15.233Z,55.81
2022-09-27T11:18:27.643Z,54.17
2022-09-27T11:21:16.361Z,54.69
2022-09-27T11:24:04.291Z,53.95
2022-09-27T11:26:41.743Z,54.53
2022-09-27T11:29:33.215Z,55.71
2022-09-27T11:32:29.118Z,56.52
2022-09-27T11:34:57.413Z,56.64
2022-09-27T11:37:28.950Z,55.77
2022-09-27T11:39:57.157Z,56.09
2022-09-27T11:42:28.504Z,56.77
2022-09-27T11:45:45.498Z,56.91
2022-09-27T11:48:27.521Z,57.29
2022-09-27T11:51:08.280Z,58.07
2022-09-27T11:54:05.892Z,58.75
2022-09-27T11:56:34.455Z,59.00
2022-09-27T11:59:28.722Z,59.25
2022-09-27T12:02:21.270Z,59.32
2022-09-27T12:04:52.689Z,60.08
2022-09-27T12:07:22.577Z,59.81
2022-09-27T12:09:53.558Z,60.61
2022-09-27T12:12:23.971Z,60.61
2022-09-27T12:14:55.027Z,60.69
2022-09-27T12:17:26.046Z,61.18
2022-09-27T12:19:58.532Z,61.77
2022-09-27T12:22:58.981Z,62.05
2022-09-27T12:25:57.300Z,62.68
2022-09-27T12:28:33.485Z,63.04
2022-09-27T12:31:28.094Z,64.22
2022-09-27T12:34:01.560Z,64.72
2022-09-27T12:36:38.802Z,64.59
2022-09-27T12:39:16.341Z,65.16
2022-09-27T12:41:49.830Z,65.38
2022-09-27T12:44:32.322Z,65.92
2022-09-27T12:47:23.507Z,66.23
2022-09-27T12:49:52.165Z,66.25
2022-09-27T12:52:25.691Z,66.30
2022-09-27T12:55:00.497Z,67.04
2022-09-27T12:57:37.786Z,67.04
2022-09-27T13:00:12.923Z,67.54
2022-09-27T13:02:57.435Z,68.03
2022-09-27T13:05:50.710Z,66.96
2022-09-27T13:08:18.958Z,66.78
2022-09-27T13:10:59.384Z,66.77
2022-09-27T13:13:36.249Z,66.32
2022-09-27T13:16:06.643Z,66.12
2022-09-27T13:18:53.248Z,66.75
2022-09-27T13:21:40.522Z,67.21
2022-09-27T13:24:38.154Z,67.75
2022-09-27T13:27:25.691Z,68.02
2022-09-27T13:30:09.661Z,68.29
2022-09-27T13:32:39.172Z,68.57
2022-09-27T13:35:19.161Z,68.49
2022-09-27T13:38:01.622Z,67.68
2022-09-27T13:40:50.171Z,66.36
2022-09-27T13:43:41.747Z,66.25
2022-09-27T13:46:21.107Z,65.74
2022-09-27T13:48:50.820Z,65.55
2022-09-27T13:51:20.038Z,65.51
2022-09-27T13:53:57.445Z,64.80
2022-09-27T13:56:46.712Z,60.86
2022-09-27T13:59:34.566Z,60.78
2022-09-27T14:02:24.190Z,58.90
2022-09-27T14:04:53.585Z,58.16
2022-09-27T14:07:26.640Z,58.80
2022-09-27T14:10:01.208Z,58.76
2022-09-27T14:12:33.962Z,59.42
2022-09-27T14:15:04.410Z,60.97
2022-09-27T14:17:33.308Z,60.82
2022-09-27T14:20:03.361Z,61.35
2022-09-27T14:22:32.029Z,61.54
2022-09-27T14:25:16.790Z,61.85
2022-09-27T14:27:46.253Z,62.74
2022-09-27T14:30:24.349Z,62.90
2022-09-27T14:33:01.824Z,63.53
2022-09-27T14:36:08.235Z,64.19
2022-09-27T14:38:38.799Z,63.22
2022-09-27T14:41:16.204Z,63.74
2022-09-27T14:43:46.326Z,63.64
2022-09-27T14:46:28.017Z,64.03
2022-09-27T14:48:56.529Z,64.70
2022-09-27T14:51:29.616Z,65.34
2022-09-27T14:54:00.933Z,65.62
2022-09-27T14:56:40.009Z,67.06
2022-09-27T14:59:14.496Z,67.06
2022-09-27T15:01:52.464Z,67.53
2022-09-27T15:04:22.581Z,67.87
2022-09-27T15:06:51.216Z,67.72
2022-09-27T15:09:20.848Z,68.64
2022-09-27T15:11:53.002Z,68.59
2022-09-27T15:14:22.097Z,68.48
2022-09-27T15:16:51.867Z,68.98
2022-09-27T15:19:28.086Z,69.14
2022-09-27T15:21:57.482Z,69.46
2022-09-27T15:24:39.174Z,70.03
2022-09-27T15:27:24.268Z,69.75
2022-09-27T15:29:54.107Z,69.93
2022-09-27T15:32:24.261Z,69.76
2022-09-27T15:34:53.359Z,70.19
2022-09-27T15:37:27.310Z,69.91
2022-09-27T15:39:55.538Z,70.19
2022-09-27T15:42:23.996Z,70.72
2022-09-27T15:44:53.192Z,71.76
2022-09-27T15:47:40.329Z,71.12
2022-09-27T15:50:17.396Z,70.98
2022-09-27T15:52:52.741Z,71.47
2022-09-27T15:55:24.629Z,72.57
2022-09-27T15:57:59.509Z,71.61
2022-09-27T16:00:28.152Z,73.35
2022-09-27T16:02:56.341Z,72.67
2022-09-27T16:05:24.541Z,72.35
2022-09-27T16:07:53.055Z,72.83
2022-09-27T16:10:23.734Z,72.69
2022-09-27T16:12:52.405Z,73.12
2022-09-27T16:15:20.651Z,73.43
2022-09-27T16:17:48.845Z,73.38
2022-09-27T16:20:23.320Z,73.40
2022-09-27T16:22:52.178Z,73.86
2022-09-27T16:25:20.756Z,73.97
2022-09-27T16:27:49.175Z,74.31
2022-09-27T16:30:17.616Z,73.93
2022-09-27T16:32:47.091Z,74.70
2022-09-27T16:35:16.156Z,74.45
2022-09-27T16:37:44.355Z,74.86
2022-09-27T16:40:13.652Z,74.84
2022-09-27T16:42:42.490Z,74.50
2022-09-27T16:45:14.539Z,74.37
2022-09-27T16:47:45.073Z,74.42
2022-09-27T16:50:32.086Z,74.52
2022-09-27T16:53:00.688Z,74.90
2022-09-27T16:55:29.520Z,75.19
2022-09-27T16:57:58.821Z,75.03
2022-09-27T17:00:28.499Z,74.99
2022-09-27T17:02:56.777Z,75.14
2022-09-27T17:05:25.387Z,75.34
2022-09-27T17:07:53.725Z,75.38
2022-09-27T17:10:22.639Z,75.00
2022-09-27T17:12:51.225Z,75.38
2022-09-27T17:15:19.347Z,75.90
2022-09-27T17:17:50.579Z,75.99
2022-09-27T17:20:18.979Z,76.53
2022-09-27T17:22:47.950Z,76.76
2022-09-27T17:25:16.092Z,76.79
2022-09-27T17:27:44.403Z,76.66
2022-09-27T17:30:12.595Z,77.05
2022-09-27T17:32:40.837Z,77.02
2022-09-27T17:35:09.519Z,76.53
2022-09-27T17:37:37.713Z,76.95
2022-09-27T17:40:06.164Z,76.46
2022-09-27T17:42:35.603Z,77.19
2022-09-27T17:45:03.973Z,77.94
2022-09-27T17:47:50.678Z,77.57
2022-09-27T17:50:24.726Z,78.42
2022-09-27T17:52:53.966Z,78.77
2022-09-27T17:55:22.647Z,78.49
2022-09-27T17:57:51.257Z,78.32
2022-09-27T18:00:20.594Z,78.22
2022-09-27T18:02:48.904Z,77.82
2022-09-27T18:05:21.229Z,78.42
2022-09-27T18:07:49.599Z,78.28
2022-09-27T18:10:18.037Z,78.43
2022-09-27T18:12:46.264Z,78.72
2022-09-27T18:15:17.126Z,78.78
2022-09-27T18:17:45.981Z,78.46
2022-09-27T18:20:14.098Z,78.60
2022-09-27T18:22:42.283Z,78.27
2022-09-27T18:25:12.097Z,78.32
2022-09-27T18:27:41.061Z,78.45
2022-09-27T18:30:09.688Z,78.52
2022-09-27T18:32:37.852Z,78.61
2022-09-27T18:35:07.119Z,78.55
2022-09-27T18:37:35.409Z,78.05
2022-09-27T18:40:03.933Z,78.51
2022-09-27T18:42:32.299Z,78.13
2022-09-27T18:45:00.456Z,77.86
2022-09-27T18:47:28.703Z,78.66
2022-09-27T18:49:56.837Z,78.18
2022-09-27T18:52:24.984Z,78.23
2022-09-27T18:54:53.138Z,78.26
2022-09-27T18:57:21.757Z,78.78
2022-09-27T18:59:49.897Z,79.48
2022-09-27T19:02:18.040Z,79.00
2022-09-27T19:04:46.233Z,78.67
2022-09-27T19:07:14.377Z,78.51
2022-09-27T19:09:42.537Z,78.62
2022-09-27T19:12:10.708Z,78.03
2022-09-27T19:14:38.834Z,75.54
2022-09-27T19:17:07.376Z,72.84
2022-09-27T19:19:35.632Z,72.32
2022-09-27T19:22:03.889Z,71.15
2022-09-27T19:24:32.088Z,71.25
2022-09-27T19:27:00.221Z,71.57
2022-09-27T19:29:28.443Z,71.85
2022-09-27T19:31:56.588Z,72.21
2022-09-27T19:34:24.706Z,71.75
2022-09-27T19:36:53.173Z,71.89
2022-09-27T19:39:21.294Z,71.81
2022-09-27T19:41:49.487Z,71.33
2022-09-27T19:44:17.720Z,71.18
2022-09-27T19:46:46.061Z,71.71
2022-09-27T19:49:14.584Z,72.20
2022-09-27T19:51:42.780Z,72.32
2022-09-27T19:54:11.557Z,73.36
2022-09-27T19:56:39.707Z,73.16
2022-09-27T19:59:07.807Z,74.14
2022-09-27T20:01:36.111Z,74.80
2022-09-27T20:04:04.496Z,75.75
2022-09-27T20:06:33.261Z,76.10
2022-09-27T20:09:03.260Z,76.75
2022-09-27T20:11:32.797Z,77.40
2022-09-27T20:14:01.060Z,77.62
2022-09-27T20:16:29.468Z,77.78
2022-09-27T20:18:58.567Z,77.82
2022-09-27T20:21:27.827Z,77.77
2022-09-27T20:23:57.152Z,77.75
2022-09-27T20:26:26.836Z,78.10
2022-09-27T20:28:57.190Z,78.65
2022-09-27T20:31:30.047Z,78.52
2022-09-27T20:33:58.284Z,78.96
2022-09-27T20:36:28.587Z,79.11
2022-09-27T20:39:04.693Z,79.43
2022-09-27T20:41:34.110Z,79.52
2022-09-27T20:44:06.112Z,79.75
2022-09-27T20:46:35.414Z,79.82
2022-09-27T20:49:05.000Z,79.74
2022-09-27T20:51:34.284Z,79.62
2022-09-27T20:54:03.230Z,79.82
2022-09-27T20:56:32.844Z,79.86
2022-09-27T20:59:02.112Z,79.91
2022-09-27T21:01:30.946Z,79.85
2022-09-27T21:04:00.450Z,79.71
2022-09-27T21:06:30.289Z,79.48
2022-09-27T21:08:58.976Z,79.38
2022-09-27T21:11:27.462Z,79.13
2022-09-27T21:13:55.779Z,79.07
2022-09-27T21:16:26.512Z,78.92
2022-09-27T21:18:55.898Z,78.93
2022-09-27T21:21:24.771Z,78.83
2022-09-27T21:23:54.166Z,78.90
2022-09-27T21:26:22.717Z,78.86
2022-09-27T21:28:52.214Z,78.86
2022-09-27T21:31:22.957Z,78.59
2022-09-27T21:33:55.098Z,78.31
2022-09-27T21:36:24.188Z,78.24
2022-09-27T21:38:52.502Z,78.45
2022-09-27T21:41:20.972Z,78.44
2022-09-27T21:43:49.256Z,79.03
2022-09-27T21:46:20.650Z,79.19
2022-09-27T21:48:49.924Z,79.54
2022-09-27T21:51:22.351Z,80.63
2022-09-27T21:53:51.731Z,80.21
2022-09-27T21:56:20.511Z,80.99
2022-09-27T21:58:48.872Z,80.97
2022-09-27T22:01:18.570Z,80.15
2022-09-27T22:03:47.043Z,81.43
2022-09-27T22:06:19.671Z,81.56
2022-09-27T22:08:48.650Z,82.22
2022-09-27T22:11:18.677Z,82.11
2022-09-27T22:13:46.943Z,81.32
2022-09-27T22:16:16.680Z,80.84
2022-09-27T22:18:48.965Z,80.82
2022-09-27T22:21:18.654Z,81.16
2022-09-27T22:23:46.809Z,80.48
2022-09-27T22:26:18.712Z,80.89
2022-09-27T22:28:47.031Z,81.37
2022-09-27T22:31:16.191Z,81.15
2022-09-27T22:33:54.685Z,81.43
2022-09-27T22:36:23.559Z,81.46
2022-09-27T22:38:52.141Z,80.77
2022-09-27T22:41:20.841Z,80.74
2022-09-27T22:43:49.281Z,80.48
2022-09-27T22:46:17.548Z,80.29
2022-09-27T22:48:45.865Z,79.93
2022-09-27T22:51:14.458Z,79.65
2022-09-27T22:53:43.234Z,79.52
2022-09-27T22:56:14.387Z,79.22
2022-09-27T22:58:44.187Z,79.57
2022-09-27T23:01:20.743Z,79.61
2022-09-27T23:03:50.217Z,80.01
2022-09-27T23:06:19.427Z,80.20
2022-09-27T23:08:47.904Z,80.23
2022-09-27T23:11:19.933Z,79.85
2022-09-27T23:13:48.971Z,79.87
2022-09-27T23:16:19.553Z,79.71
2022-09-27T23:18:47.990Z,80.30
2022-09-27T23:21:17.159Z,80.43
2022-09-27T23:23:46.087Z,80.66
2022-09-27T23:26:15.609Z,80.45
2022-09-27T23:28:44.198Z,80.55
2022-09-27T23:31:13.974Z,80.23
2022-09-27T23:33:43.481Z,80.14
2022-09-27T23:36:15.327Z,80.56
2022-09-27T23:38:45.874Z,81.25
2022-09-27T23:41:15.534Z,81.03
2022-09-27T23:43:44.605Z,81.36
2022-09-27T23:46:13.345Z,81.18
2022-09-27T23:48:41.698Z,80.82
2022-09-27T23:51:10.699Z,80.70
2022-09-27T23:53:39.561Z,80.96
2022-09-27T23:56:12.139Z,81.43
2022-09-27T23:58:41.629Z,80.99
